createdAt,value
2022-12-17T00:00:39.402Z,-2.86
2022-12-17T00:05:59.798Z,-2.86
2022-12-17T00:11:19.921Z,-2.78
2022-12-17T00:16:41.395Z,-2.81
2022-12-17T00:22:01.831Z,-2.91
2022-12-17T00:27:22.396Z,-2.90
2022-12-17T00:32:43.875Z,-2.89
2022-12-17T00:38:05.122Z,-2.83
2022-12-17T00:43:27.072Z,-2.75
2022-12-17T00:48:48.955Z,-2.74
2022-12-17T00:54:09.593Z,-2.75
2022-12-17T00:59:29.666Z,-2.75
2022-12-17T01:04:52.166Z,-2.76
2022-12-17T01:10:12.589Z,-2.59
2022-12-17T01:15:32.931Z,-2.48
2022-12-17T01:20:54.612Z,-2.50
2022-12-17T01:26:17.380Z,-2.52
2022-12-17T01:31:37.888Z,-2.51
2022-12-17T01:36:59.509Z,-2.51
2022-12-17T01:42:19.604Z,-2.47
2022-12-17T01:47:40.064Z,-2.46
2022-12-17T01:53:01.673Z,-2.36
2022-12-17T01:58:22.293Z,-2.29
2022-12-17T02:03:42.602Z,-2.26
2022-12-17T02:09:15.745Z,-2.44
2022-12-17T02:14:41.543Z,-2.50
2022-12-17T02:20:05.595Z,-2.57
2022-12-17T02:25:34.927Z,-2.67
2022-12-17T02:30:57.240Z,-2.67
2022-12-17T02:36:21.322Z,-2.58
2022-12-17T02:41:43.954Z,-2.42
2022-12-17T02:47:06.274Z,-2.29
2022-12-17T02:52:31.929Z,-2.21
2022-12-17T02:57:55.093Z,-2.17
2022-12-17T03:03:17.168Z,-2.12
2022-12-17T03:08:37.825Z,-2.09
2022-12-17T03:13:57.908Z,-2.10
2022-12-17T03:19:20.400Z,-2.23
2022-12-17T03:24:40.690Z,-2.34
2022-12-17T03:30:00.876Z,-2.36
2022-12-17T03:35:22.751Z,-2.36
2022-12-17T03:40:48.378Z,-2.22
2022-12-17T03:46:10.728Z,-2.21
2022-12-17T03:51:32.165Z,-2.36
2022-12-17T03:56:53.330Z,-2.37
2022-12-17T04:02:13.644Z,-2.46
2022-12-17T04:07:35.514Z,-2.39
2022-12-17T04:12:55.638Z,-2.47
2022-12-17T04:18:15.835Z,-2.54
2022-12-17T04:23:37.870Z,-2.56
2022-12-17T04:28:58.141Z,-2.53
2022-12-17T04:34:18.396Z,-2.53
2022-12-17T04:39:39.745Z,-2.44
2022-12-17T04:45:11.632Z,-2.37
2022-12-17T04:50:31.900Z,-2.39
2022-12-17T04:55:53.712Z,-2.22
2022-12-17T05:01:13.997Z,-2.27
2022-12-17T05:06:34.724Z,-2.33
2022-12-17T05:11:56.517Z,-2.34
2022-12-17T05:17:16.623Z,-2.31
2022-12-17T05:22:36.720Z,-2.24
2022-12-17T05:27:58.225Z,-2.20
2022-12-17T05:33:18.812Z,-2.17
2022-12-17T05:38:39.196Z,-2.16
2022-12-17T05:44:01.114Z,-2.09
2022-12-17T05:49:21.179Z,-1.88
2022-12-17T05:54:55.864Z,-1.90
2022-12-17T06:00:17.563Z,-1.94
2022-12-17T06:05:38.317Z,-1.95
2022-12-17T06:10:58.632Z,-1.99
2022-12-17T06:16:20.098Z,-2.00
2022-12-17T06:21:40.746Z,-2.04
2022-12-17T06:27:01.163Z,-2.03
2022-12-17T06:32:23.099Z,-1.97
2022-12-17T06:37:43.633Z,-1.94
2022-12-17T06:43:11.342Z,-1.94
2022-12-17T06:48:32.711Z,-1.93
2022-12-17T06:53:53.455Z,-1.91
2022-12-17T06:59:13.578Z,-1.87
2022-12-17T07:04:35.013Z,-1.74
2022-12-17T07:09:55.055Z,-1.73
2022-12-17T07:15:17.610Z,-1.79
2022-12-17T07:20:39.151Z,-1.77
2022-12-17T07:26:00.102Z,-1.80
2022-12-17T07:31:20.801Z,-1.83
2022-12-17T07:36:42.311Z,-1.79
2022-12-17T07:42:17.456Z,-1.73
2022-12-17T07:47:37.735Z,-1.82
2022-12-17T07:52:59.363Z,-1.88
2022-12-17T07:58:20.950Z,-1.88
2022-12-17T08:03:41.719Z,-1.90
2022-12-17T08:09:03.513Z,-1.97
2022-12-17T08:14:23.546Z,-1.97
2022-12-17T08:19:43.660Z,-1.98
2022-12-17T08:25:05.299Z,-2.03
2022-12-17T08:30:26.259Z,-1.91
2022-12-17T08:35:46.853Z,-1.91
2022-12-17T08:41:08.344Z,-1.89
2022-12-17T08:46:28.570Z,-1.86
2022-12-17T08:51:49.122Z,-1.85
2022-12-17T08:57:10.442Z,-1.81
2022-12-17T09:02:31.184Z,-1.75
2022-12-17T09:07:51.620Z,-1.69
2022-12-17T09:13:13.048Z,-1.70
2022-12-17T09:18:37.173Z,-1.87
2022-12-17T09:23:57.767Z,-1.89
2022-12-17T09:29:19.229Z,-1.74
2022-12-17T09:34:39.396Z,-1.61
2022-12-17T09:39:59.611Z,-1.61
2022-12-17T09:45:24.639Z,-1.53
2022-12-17T09:50:45.221Z,-1.53
2022-12-17T09:56:07.453Z,-1.46
2022-12-17T10:01:35.338Z,-1.38
2022-12-17T10:07:04.233Z,-1.41
2022-12-17T10:12:31.875Z,-1.40
2022-12-17T10:17:53.705Z,-1.38
2022-12-17T10:23:14.656Z,-1.32
2022-12-17T10:28:37.313Z,-1.40
2022-12-17T10:33:59.858Z,-1.43
2022-12-17T10:39:20.284Z,-1.27
2022-12-17T10:44:51.227Z,-1.26
2022-12-17T10:50:17.551Z,-1.41
2022-12-17T10:55:41.386Z,-1.30
2022-12-17T11:01:01.633Z,-1.15
2022-12-17T11:06:24.297Z,-1.30
2022-12-17T11:11:44.438Z,-1.38
2022-12-17T11:17:07.933Z,-1.21
2022-12-17T11:22:40.117Z,-1.20
2022-12-17T11:28:03.227Z,-1.21
2022-12-17T11:33:28.100Z,-1.12
2022-12-17T11:38:53.231Z,-0.98
2022-12-17T11:44:21.414Z,-1.14
2022-12-17T11:49:48.127Z,-1.21
2022-12-17T11:55:15.107Z,-1.08
2022-12-17T12:00:38.095Z,-1.19
2022-12-17T12:06:13.649Z,-1.11
2022-12-17T12:11:44.703Z,-1.00
2022-12-17T12:17:10.786Z,-0.99
2022-12-17T12:22:34.723Z,-1.05
2022-12-17T12:28:00.266Z,-1.02
2022-12-17T12:33:32.222Z,-1.09
2022-12-17T12:38:56.238Z,-1.13
2022-12-17T12:44:19.755Z,-0.96
2022-12-17T12:49:43.435Z,-0.95
2022-12-17T12:55:12.050Z,-1.00
2022-12-17T13:00:58.832Z,-1.11
2022-12-17T13:06:01.637Z,-1.14
2022-12-17T13:11:28.505Z,-1.11
2022-12-17T13:16:42.524Z,-1.04
2022-12-17T13:21:45.492Z,-1.07
2022-12-17T13:26:48.214Z,-1.08
2022-12-17T13:32:03.651Z,-1.09
2022-12-17T13:37:08.785Z,-1.17
2022-12-17T13:42:26.593Z,-1.07
2022-12-17T13:47:32.417Z,-1.17
2022-12-17T13:52:35.120Z,-1.11
2022-12-17T13:57:38.779Z,-1.09
2022-12-17T14:02:43.474Z,-1.00
2022-12-17T14:07:46.438Z,-1.01
2022-12-17T14:12:49.962Z,-1.20
2022-12-17T14:17:55.096Z,-1.23
2022-12-17T14:23:01.562Z,-1.13
2022-12-17T14:28:06.389Z,-1.15
2022-12-17T14:33:29.221Z,-1.08
2022-12-17T14:38:48.167Z,-1.09
2022-12-17T14:43:57.041Z,-1.14
2022-12-17T14:49:02.327Z,-1.10
2022-12-17T14:54:18.632Z,-1.04
2022-12-17T14:59:32.186Z,-1.06
2022-12-17T15:04:38.294Z,-1.00
2022-12-17T15:09:42.037Z,-1.05
2022-12-17T15:14:45.303Z,-1.12
2022-12-17T15:19:55.776Z,-1.14
2022-12-17T15:24:59.013Z,-1.29
2022-12-17T15:30:01.739Z,-1.30
2022-12-17T15:35:06.655Z,-1.14
2022-12-17T15:40:12.005Z,-1.19
2022-12-17T15:45:14.793Z,-1.26
2022-12-17T15:50:19.847Z,-1.23
2022-12-17T15:55:22.598Z,-1.26
2022-12-17T16:00:25.418Z,-1.37
2022-12-17T16:05:29.547Z,-1.43
2022-12-17T16:10:32.514Z,-1.50
2022-12-17T16:15:35.263Z,-1.57
2022-12-17T16:20:39.424Z,-1.67
2022-12-17T16:25:42.201Z,-1.82
2022-12-17T16:30:44.907Z,-1.89
2022-12-17T16:35:52.895Z,-1.90
2022-12-17T16:40:57.160Z,-1.93
2022-12-17T16:45:59.954Z,-2.00
2022-12-17T16:51:16.346Z,-1.99
2022-12-17T16:56:21.627Z,-2.13
2022-12-17T17:01:26.671Z,-2.21
2022-12-17T17:06:33.899Z,-2.34
2022-12-17T17:11:36.988Z,-2.41
2022-12-17T17:16:40.021Z,-2.68
2022-12-17T17:21:49.813Z,-3.05
2022-12-17T17:26:53.961Z,-3.14
2022-12-17T17:32:13.550Z,-3.35
2022-12-17T17:37:18.435Z,-3.45
2022-12-17T17:42:21.210Z,-3.43
2022-12-17T17:47:23.970Z,-3.44
2022-12-17T17:52:28.040Z,-3.45
2022-12-17T17:57:30.938Z,-3.64
2022-12-17T18:02:33.822Z,-3.95
2022-12-17T18:07:38.081Z,-4.10
2022-12-17T18:12:58.548Z,-4.25
2022-12-17T18:18:01.356Z,-4.25
2022-12-17T18:23:05.932Z,-4.27
2022-12-17T18:28:08.722Z,-4.40
2022-12-17T18:33:11.479Z,-4.32
2022-12-17T18:38:15.651Z,-4.20
2022-12-17T18:43:25.356Z,-4.18
2022-12-17T18:48:28.206Z,-4.22
2022-12-17T18:53:33.524Z,-4.37
2022-12-17T18:58:36.613Z,-4.53
2022-12-17T19:03:39.452Z,-4.60
2022-12-17T19:08:43.783Z,-4.68
2022-12-17T19:13:50.827Z,-4.86
2022-12-17T19:18:54.815Z,-5.06
2022-12-17T19:24:01.285Z,-5.22
2022-12-17T19:29:05.316Z,-5.08
2022-12-17T19:34:08.983Z,-5.16
2022-12-17T19:39:15.138Z,-5.19
2022-12-17T19:44:20.058Z,-5.08
2022-12-17T19:49:23.003Z,-5.29
2022-12-17T19:54:27.309Z,-5.40
2022-12-17T19:59:30.078Z,-5.19
2022-12-17T20:04:33.091Z,-5.30
2022-12-17T20:09:37.147Z,-5.42
2022-12-17T20:14:40.342Z,-5.45
2022-12-17T20:19:43.619Z,-5.35
2022-12-17T20:24:47.983Z,-5.62
2022-12-17T20:29:50.744Z,-5.63
2022-12-17T20:34:53.650Z,-5.53
2022-12-17T20:39:57.735Z,-5.47
2022-12-17T20:45:00.512Z,-5.48
2022-12-17T20:50:03.452Z,-5.55
2022-12-17T20:55:08.514Z,-5.55
2022-12-17T21:00:12.593Z,-5.53
2022-12-17T21:05:15.320Z,-5.46
2022-12-17T21:10:19.821Z,-5.52
2022-12-17T21:15:22.824Z,-5.65
2022-12-17T21:20:25.676Z,-5.64
2022-12-17T21:25:30.522Z,-5.64
2022-12-17T21:30:36.942Z,-5.81
2022-12-17T21:35:39.686Z,-5.79
2022-12-17T21:40:43.853Z,-5.70
2022-12-17T21:45:46.939Z,-5.66
2022-12-17T21:50:49.695Z,-5.64
2022-12-17T21:55:54.904Z,-5.76
2022-12-17T22:00:58.552Z,-5.76
2022-12-17T22:06:06.855Z,-5.74
2022-12-17T22:11:12.341Z,-5.69
2022-12-17T22:16:16.529Z,-5.57
2022-12-17T22:21:19.363Z,-5.55
2022-12-17T22:26:24.165Z,-5.59
2022-12-17T22:31:47.640Z,-5.74
2022-12-17T22:39:55.445Z,-5.87
2022-12-17T22:44:36.594Z,-5.84
2022-12-17T22:47:55.805Z,-5.76
2022-12-17T22:52:58.589Z,-5.81
2022-12-17T22:58:03.161Z,-5.83
2022-12-17T23:03:06.512Z,-5.83
2022-12-17T23:08:09.256Z,-5.75
2022-12-17T23:13:13.373Z,-5.82
2022-12-17T23:18:16.114Z,-5.82
2022-12-17T23:23:18.896Z,-5.84
2022-12-17T23:28:22.922Z,-6.05
2022-12-17T23:33:25.661Z,-6.04
2022-12-17T23:38:28.434Z,-5.94
2022-12-17T23:43:35.681Z,-5.95
2022-12-17T23:48:45.144Z,-5.99
2022-12-17T23:53:48.459Z,-5.95
2022-12-17T23:58:56.236Z,-5.91
